ESOK 172250Z AUTO 20003KT 9999 R03/P1500N R21///// NCD 13/10 Q1012